createdAt,value
2018-08-08T00:00:15.505Z,49.17
2018-08-08T00:01:15.562Z,49.29
2018-08-08T00:02:15.457Z,49.03
2018-08-08T00:03:15.520Z,49.18
2018-08-08T00:04:15.459Z,49.38
2018-08-08T00:05:15.422Z,49.35
2018-08-08T00:06:15.533Z,49.02
2018-08-08T00:07:15.601Z,49.25
2018-08-08T00:08:15.642Z,49.33
2018-08-08T00:09:15.468Z,49.71
2018-08-08T00:10:15.473Z,49.39
2018-08-08T00:11:15.454Z,49.68
2018-08-08T00:12:15.510Z,49.69
2018-08-08T00:13:15.525Z,49.79
2018-08-08T00:14:15.461Z,49.8
2018-08-08T00:15:15.469Z,49.86
2018-08-08T00:16:15.652Z,50.07
2018-08-08T00:17:15.453Z,49.72
2018-08-08T00:18:15.562Z,49.75
2018-08-08T00:19:15.540Z,50.29
2018-08-08T00:20:15.441Z,49.84
2018-08-08T00:21:15.444Z,50.19
2018-08-08T00:22:15.507Z,50.14
2018-08-08T00:23:15.445Z,50.19
2018-08-08T00:24:15.653Z,50.22
2018-08-08T00:25:15.457Z,50.11
2018-08-08T00:26:15.508Z,49.9
2018-08-08T00:27:15.454Z,50.19
2018-08-08T00:28:15.459Z,49.89
2018-08-08T00:29:15.445Z,49.75
2018-08-08T00:30:15.461Z,50.35
2018-08-08T00:31:15.469Z,50.49
2018-08-08T00:32:15.471Z,50.59
2018-08-08T00:33:15.475Z,50.51
2018-08-08T00:34:15.472Z,50.77
2018-08-08T00:35:15.478Z,50.84
2018-08-08T00:36:15.464Z,50.85
2018-08-08T00:37:15.485Z,50.87
2018-08-08T00:38:15.473Z,50.82
2018-08-08T00:39:15.497Z,50.68
2018-08-08T00:40:15.511Z,50.77
2018-08-08T00:41:15.868Z,50.99
2018-08-08T00:42:15.474Z,50.99
2018-08-08T00:43:15.491Z,50.37
2018-08-08T00:44:15.479Z,51.08
2018-08-08T00:45:15.488Z,50.93
2018-08-08T00:46:15.475Z,50.79
2018-08-08T00:47:15.504Z,51.09
2018-08-08T00:48:15.487Z,51.08
2018-08-08T00:49:15.504Z,51.13
2018-08-08T00:50:15.686Z,51.01
2018-08-08T00:51:15.796Z,50.95
2018-08-08T00:52:15.497Z,50.67
2018-08-08T00:53:15.508Z,51.21
2018-08-08T00:54:15.584Z,50.72
2018-08-08T00:55:15.591Z,51.07
2018-08-08T00:56:15.492Z,50.66
2018-08-08T00:57:15.474Z,51.06
2018-08-08T00:58:15.538Z,51.47
2018-08-08T00:59:15.939Z,51.04
2018-08-08T01:00:15.509Z,51.13
2018-08-08T01:01:15.530Z,51.08
2018-08-08T01:02:15.516Z,50.71
2018-08-08T01:03:15.486Z,50.73
2018-08-08T01:04:15.557Z,51.37
2018-08-08T01:05:15.544Z,51
2018-08-08T01:06:15.520Z,50.69
2018-08-08T01:07:15.516Z,51.01
2018-08-08T01:08:15.608Z,50.85
2018-08-08T01:09:15.503Z,51.26
2018-08-08T01:10:15.705Z,51.59
2018-08-08T01:11:15.536Z,51.57
2018-08-08T01:12:15.518Z,51.51
2018-08-08T01:13:15.589Z,51.5
2018-08-08T01:14:15.555Z,51.27
2018-08-08T01:15:15.522Z,51.47
2018-08-08T01:16:15.505Z,51.33
2018-08-08T01:17:15.540Z,51.48
2018-08-08T01:18:15.578Z,51.61
2018-08-08T01:19:15.510Z,51.58
2018-08-08T01:20:15.575Z,51.31
2018-08-08T01:21:15.538Z,51.02
2018-08-08T01:22:15.530Z,51.38
2018-08-08T01:23:15.510Z,51.56
2018-08-08T01:24:15.525Z,51.51
2018-08-08T01:25:15.540Z,51.45
2018-08-08T01:26:15.536Z,51.62
2018-08-08T01:27:15.531Z,51.77
2018-08-08T01:28:15.595Z,51.95
2018-08-08T01:29:15.527Z,51.94
2018-08-08T01:30:15.540Z,51.89
2018-08-08T01:31:15.605Z,52.04
2018-08-08T01:32:15.614Z,52.2
2018-08-08T01:33:15.684Z,52.09
2018-08-08T01:34:15.576Z,52.13
2018-08-08T01:35:15.634Z,52.15
2018-08-08T01:36:15.583Z,52.06
2018-08-08T01:37:15.562Z,52.28
2018-08-08T01:38:15.598Z,51.92
2018-08-08T01:39:15.553Z,51.91
2018-08-08T01:40:15.557Z,52.32
2018-08-08T01:41:15.558Z,52.41
2018-08-08T01:42:15.554Z,52.49
2018-08-08T01:43:15.664Z,52.55
2018-08-08T01:44:15.556Z,52.35
2018-08-08T01:45:15.576Z,52.44
2018-08-08T01:46:15.555Z,52.52
2018-08-08T01:47:15.571Z,52.65
2018-08-08T01:48:15.578Z,52.48
2018-08-08T01:49:15.558Z,52.51
2018-08-08T01:50:15.562Z,52.52
2018-08-08T01:51:15.580Z,52.6
2018-08-08T01:52:15.563Z,52.54
2018-08-08T01:53:15.604Z,52.3
2018-08-08T01:54:15.589Z,52.05
2018-08-08T01:55:15.556Z,52.5
2018-08-08T01:56:15.571Z,52.37
2018-08-08T01:57:15.580Z,52.47
2018-08-08T01:58:15.557Z,52.17
2018-08-08T01:59:15.554Z,52.1
2018-08-08T02:00:15.560Z,51.91
2018-08-08T02:01:15.574Z,52.3
2018-08-08T02:02:15.572Z,52.02
2018-08-08T02:03:15.574Z,52.02
2018-08-08T02:04:15.589Z,52.16
2018-08-08T02:05:15.572Z,51.99
2018-08-08T02:06:15.764Z,52.02
2018-08-08T02:07:15.597Z,51.83
2018-08-08T02:08:15.618Z,51.77
2018-08-08T02:09:15.612Z,51.79
2018-08-08T02:10:15.593Z,51.66
2018-08-08T02:11:15.591Z,51.91
2018-08-08T02:12:15.640Z,51.82
2018-08-08T02:13:15.733Z,51.94
2018-08-08T02:14:15.705Z,52.2
2018-08-08T02:15:15.661Z,52.26
2018-08-08T02:16:15.863Z,52.35
2018-08-08T02:17:15.603Z,52.16
2018-08-08T02:18:15.719Z,52.27
2018-08-08T02:19:15.640Z,52.24
2018-08-08T02:20:15.666Z,52.03
2018-08-08T02:21:15.615Z,52.38
2018-08-08T02:22:15.596Z,52.5
2018-08-08T02:23:15.599Z,52.12
2018-08-08T02:24:15.617Z,52.55
2018-08-08T02:25:15.610Z,52.5
2018-08-08T02:26:15.678Z,52.65
2018-08-08T02:27:15.630Z,52.48
2018-08-08T02:28:15.611Z,52.42
2018-08-08T02:29:15.752Z,52.15
2018-08-08T02:30:15.614Z,52.11
2018-08-08T02:31:15.660Z,52.13
2018-08-08T02:32:15.622Z,52.39
2018-08-08T02:33:15.664Z,52.55
2018-08-08T02:34:15.637Z,52.29
2018-08-08T02:35:15.604Z,52.71
2018-08-08T02:36:15.617Z,52.75
2018-08-08T02:37:15.702Z,52.95
2018-08-08T02:38:15.643Z,52.92
2018-08-08T02:39:15.835Z,52.93
2018-08-08T02:40:15.663Z,52.72
2018-08-08T02:41:15.627Z,53.13
2018-08-08T02:42:15.693Z,52.79
2018-08-08T02:43:15.718Z,53.22
2018-08-08T02:44:15.644Z,53.18
2018-08-08T02:45:15.628Z,52.95
2018-08-08T02:46:15.633Z,52.83
2018-08-08T02:47:15.646Z,52.69
2018-08-08T02:48:15.935Z,52.87
2018-08-08T02:49:15.653Z,53.6
2018-08-08T02:50:15.682Z,53.64
2018-08-08T02:51:15.646Z,53.71
2018-08-08T02:52:15.655Z,53.52
2018-08-08T02:53:15.693Z,53.56
2018-08-08T02:54:15.664Z,53.43
2018-08-08T02:55:15.640Z,53.33
2018-08-08T02:56:15.721Z,53.55
2018-08-08T02:57:15.675Z,53.42
2018-08-08T02:58:15.662Z,53.72
2018-08-08T02:59:15.669Z,53.96
2018-08-08T03:00:15.659Z,53.89
2018-08-08T03:01:15.702Z,53.66
2018-08-08T03:02:15.877Z,53.72
2018-08-08T03:03:15.910Z,53.56
2018-08-08T03:04:15.675Z,53.65
2018-08-08T03:05:15.673Z,54.2
2018-08-08T03:06:15.657Z,53.47
2018-08-08T03:07:15.655Z,53.56
2018-08-08T03:08:15.971Z,53.5
2018-08-08T03:09:15.684Z,53.44
2018-08-08T03:10:15.676Z,53.63
2018-08-08T03:11:15.696Z,53.7
2018-08-08T03:12:15.671Z,53.91
2018-08-08T03:13:15.667Z,53.46
2018-08-08T03:14:15.657Z,53.63
2018-08-08T03:15:19.586Z,53.7
2018-08-08T03:16:15.671Z,53.71
2018-08-08T03:17:15.678Z,53.58
2018-08-08T03:18:15.699Z,53.67
2018-08-08T03:19:15.673Z,53.77
2018-08-08T03:20:15.675Z,54.11
2018-08-08T03:21:15.680Z,54.43
2018-08-08T03:22:15.694Z,54.06
2018-08-08T03:23:15.682Z,53.99
2018-08-08T03:24:15.680Z,54.01
2018-08-08T03:25:15.699Z,54.58
2018-08-08T03:26:15.771Z,54.44
2018-08-08T03:27:15.719Z,54.23
2018-08-08T03:28:15.714Z,54.13
2018-08-08T03:29:15.674Z,54.45
2018-08-08T03:30:15.709Z,54.31
2018-08-08T03:31:15.886Z,53.91
2018-08-08T03:32:15.847Z,54.3
2018-08-08T03:33:15.697Z,54.49
2018-08-08T03:34:15.796Z,54.58
2018-08-08T03:35:15.752Z,54.57
2018-08-08T03:36:15.736Z,54.6
2018-08-08T03:37:15.710Z,54.43
2018-08-08T03:38:15.712Z,54.51
2018-08-08T03:39:15.802Z,54.61
2018-08-08T03:40:15.696Z,54.22
2018-08-08T03:41:15.904Z,54.66
2018-08-08T03:42:15.736Z,54.48
2018-08-08T03:43:15.708Z,54.72
2018-08-08T03:44:15.715Z,54.67
2018-08-08T03:45:15.811Z,54.79
2018-08-08T03:46:15.729Z,54.88
2018-08-08T03:47:15.705Z,55.24
2018-08-08T03:48:15.737Z,55.11
2018-08-08T03:49:15.822Z,55.24
2018-08-08T03:50:15.700Z,55.47
2018-08-08T03:51:15.906Z,55.45
2018-08-08T03:52:15.865Z,55.92
2018-08-08T03:53:16.054Z,55.76
2018-08-08T03:54:15.859Z,55.47
2018-08-08T03:55:15.712Z,55.61
2018-08-08T03:56:15.893Z,56.33
2018-08-08T03:57:15.903Z,55.96
2018-08-08T03:58:15.895Z,56.17
2018-08-08T03:59:15.888Z,56.67
2018-08-08T04:00:15.880Z,56.12
2018-08-08T04:01:15.905Z,56.46
2018-08-08T04:02:15.775Z,56.73
2018-08-08T04:03:15.832Z,56.51
2018-08-08T04:04:15.730Z,56.32
2018-08-08T04:05:15.751Z,57.03
2018-08-08T04:06:15.825Z,56.85
2018-08-08T04:07:15.775Z,56.8
2018-08-08T04:08:15.930Z,57
2018-08-08T04:09:15.792Z,56.62
2018-08-08T04:10:15.726Z,57.15
2018-08-08T04:11:15.735Z,57.69
2018-08-08T04:12:15.899Z,57.76
2018-08-08T04:13:15.855Z,56.93
2018-08-08T04:14:15.744Z,57.32
2018-08-08T04:15:15.846Z,57.88
2018-08-08T04:16:15.922Z,58.07
2018-08-08T04:17:15.897Z,58.1
2018-08-08T04:18:15.763Z,57.91
2018-08-08T04:19:15.946Z,58.34
2018-08-08T04:20:15.889Z,58.4
2018-08-08T04:21:15.774Z,58.5
2018-08-08T04:22:15.896Z,58.77
2018-08-08T04:23:15.834Z,58.57
2018-08-08T04:24:15.896Z,58.92
2018-08-08T04:25:15.816Z,58.88
2018-08-08T04:26:15.739Z,58.81
2018-08-08T04:27:15.743Z,58.67
2018-08-08T04:28:15.757Z,58.36
2018-08-08T04:29:15.761Z,58.33
2018-08-08T04:30:15.830Z,58.03
2018-08-08T04:31:15.759Z,57.86
2018-08-08T04:32:15.753Z,58.16
2018-08-08T04:33:15.870Z,58.01
2018-08-08T04:34:15.759Z,57.81
2018-08-08T04:35:15.814Z,57.89
2018-08-08T04:36:15.783Z,57.56
2018-08-08T04:37:15.786Z,57.48
2018-08-08T04:38:15.773Z,57.41
2018-08-08T04:39:15.763Z,57.29
2018-08-08T04:40:15.783Z,57.07
2018-08-08T04:41:15.764Z,56.93
2018-08-08T04:42:15.781Z,56.77
2018-08-08T04:43:15.775Z,56.37
2018-08-08T04:44:15.778Z,56.3
2018-08-08T04:45:15.942Z,55.93
2018-08-08T04:46:15.982Z,55.95
2018-08-08T04:47:15.797Z,55.68
2018-08-08T04:48:15.881Z,55.27
2018-08-08T04:49:15.880Z,55.07
2018-08-08T04:50:15.825Z,54.72
2018-08-08T04:51:15.869Z,53.83
2018-08-08T04:52:15.794Z,53.53
2018-08-08T04:53:15.989Z,53.38
2018-08-08T04:54:15.948Z,53.19
2018-08-08T04:55:15.896Z,53.09
2018-08-08T04:56:15.859Z,52.95
2018-08-08T04:57:15.889Z,52.82
2018-08-08T04:58:15.822Z,52.94
2018-08-08T04:59:15.914Z,52.89
2018-08-08T05:00:16.023Z,52.97
2018-08-08T05:01:15.812Z,52.99
2018-08-08T05:02:15.818Z,52.96
2018-08-08T05:03:15.890Z,52.83
2018-08-08T05:04:15.934Z,53.02
2018-08-08T05:05:15.895Z,52.98
2018-08-08T05:06:15.820Z,52.9
2018-08-08T05:07:15.817Z,53.06
2018-08-08T05:08:15.797Z,53.04
2018-08-08T05:09:15.884Z,53.02
2018-08-08T05:10:15.890Z,53.13
2018-08-08T05:11:15.837Z,53.15
2018-08-08T05:12:15.913Z,52.97
2018-08-08T05:13:16.037Z,52.93
2018-08-08T05:14:15.882Z,52.93
2018-08-08T05:15:15.876Z,53.1
2018-08-08T05:16:15.870Z,52.86
2018-08-08T05:17:15.837Z,53.04
2018-08-08T05:18:15.958Z,53.05
2018-08-08T05:19:15.912Z,52.99
2018-08-08T05:20:16.102Z,53.08
2018-08-08T05:21:16.079Z,53.06
2018-08-08T05:22:15.878Z,53.09
2018-08-08T05:23:15.896Z,52.91
2018-08-08T05:24:16.190Z,53.12
2018-08-08T05:25:15.829Z,53.22
2018-08-08T05:26:15.927Z,52.94
2018-08-08T05:27:15.900Z,53.2
2018-08-08T05:28:15.921Z,53.2
2018-08-08T05:29:15.870Z,53.08
2018-08-08T05:30:15.841Z,53.18
2018-08-08T05:31:15.917Z,53.1
2018-08-08T05:32:15.972Z,53.27
2018-08-08T05:33:15.849Z,53.38
2018-08-08T05:34:16.015Z,53.23
2018-08-08T05:35:16.111Z,53.21
2018-08-08T05:36:15.916Z,53.34
2018-08-08T05:37:15.925Z,53.44
2018-08-08T05:38:15.968Z,53.44
2018-08-08T05:39:16.010Z,53.43
2018-08-08T05:40:15.930Z,53.57
2018-08-08T05:41:15.860Z,53.61
2018-08-08T05:42:15.860Z,53.54
2018-08-08T05:43:15.860Z,53.63
2018-08-08T05:44:15.867Z,53.8
2018-08-08T05:45:15.854Z,53.95
2018-08-08T05:46:15.872Z,53.87
2018-08-08T05:47:15.878Z,54.1
2018-08-08T05:48:15.879Z,54.33
2018-08-08T05:49:15.904Z,54.21
2018-08-08T05:50:15.891Z,53.97
2018-08-08T05:51:15.871Z,54.24
2018-08-08T05:52:15.867Z,54.24
2018-08-08T05:53:15.887Z,54.42
2018-08-08T05:54:15.868Z,54.48
2018-08-08T05:55:15.890Z,54.42
2018-08-08T05:56:15.883Z,54.45
2018-08-08T05:57:15.904Z,55.02
2018-08-08T05:58:15.868Z,54.65
2018-08-08T05:59:15.881Z,54.74
2018-08-08T06:00:15.910Z,54.38
2018-08-08T06:01:15.905Z,55.09
2018-08-08T06:02:15.933Z,54.87
2018-08-08T06:03:15.907Z,55.01
2018-08-08T06:04:15.880Z,55.3
2018-08-08T06:05:15.911Z,55.2
2018-08-08T06:06:21.341Z,55.08
2018-08-08T06:07:24.567Z,54.99
2018-08-08T06:08:29.519Z,55.23
2018-08-08T06:09:38.487Z,55.39
2018-08-08T06:10:15.905Z,55.37
2018-08-08T06:11:15.989Z,55.29
2018-08-08T06:12:15.918Z,55.2
2018-08-08T06:13:15.924Z,55.38
2018-08-08T06:14:15.916Z,55.19
2018-08-08T06:15:15.886Z,55.23
2018-08-08T06:16:15.917Z,55.28
2018-08-08T06:17:15.889Z,55.53
2018-08-08T06:18:15.931Z,55.21
2018-08-08T06:19:15.928Z,55.29
2018-08-08T06:20:15.968Z,55.2
2018-08-08T06:21:15.902Z,55.4
2018-08-08T06:22:16.077Z,55.45
2018-08-08T06:23:15.920Z,55.11
2018-08-08T06:24:15.916Z,55.21
2018-08-08T06:25:15.996Z,55.45
2018-08-08T06:26:15.957Z,55.12
2018-08-08T06:27:16.233Z,55.11
2018-08-08T06:28:16.231Z,54.97
2018-08-08T06:29:15.919Z,55.01
2018-08-08T06:30:15.911Z,55.1
2018-08-08T06:31:15.984Z,55.15
2018-08-08T06:32:15.912Z,55.24
2018-08-08T06:33:15.911Z,55.06
2018-08-08T06:34:15.906Z,55.08
2018-08-08T06:35:15.907Z,55.51
2018-08-08T06:36:15.923Z,55.09
2018-08-08T06:37:15.919Z,55.17
2018-08-08T06:38:15.928Z,55.27
2018-08-08T06:39:16.060Z,55.29
2018-08-08T06:40:16.029Z,55.33
2018-08-08T06:41:16.441Z,55.2
2018-08-08T06:42:15.953Z,55.17
2018-08-08T06:43:15.970Z,55.35
2018-08-08T06:44:16.038Z,55.23
2018-08-08T06:45:15.938Z,55.22
2018-08-08T06:46:15.952Z,55.23
2018-08-08T06:47:15.931Z,55.3
2018-08-08T06:48:15.961Z,55.5
2018-08-08T06:49:15.989Z,55.18
2018-08-08T06:50:16.117Z,55.38
2018-08-08T06:51:16.088Z,55.44
2018-08-08T06:52:15.943Z,55.28
2018-08-08T06:53:16.226Z,54.94
2018-08-08T06:54:16.132Z,54.72
2018-08-08T06:55:16.257Z,54.71
2018-08-08T06:56:16.152Z,54.78
2018-08-08T06:57:15.955Z,54.52
2018-08-08T06:58:15.951Z,54.55
2018-08-08T06:59:15.955Z,54.5
2018-08-08T07:00:15.959Z,54.57
2018-08-08T07:01:15.988Z,54.14
2018-08-08T07:02:15.969Z,54.51
2018-08-08T07:03:15.980Z,54.5
2018-08-08T07:04:15.986Z,54.31
2018-08-08T07:05:15.995Z,54.3
2018-08-08T07:06:16.010Z,54.36
2018-08-08T07:07:15.965Z,54.49
2018-08-08T07:08:15.960Z,54.53
2018-08-08T07:09:15.965Z,54.63
2018-08-08T07:10:16.470Z,54.44
2018-08-08T07:11:15.996Z,54.22
2018-08-08T07:12:15.989Z,53.91
2018-08-08T07:13:15.984Z,53.88
2018-08-08T07:14:15.994Z,53.69
2018-08-08T07:15:15.972Z,53.36
2018-08-08T07:16:15.983Z,53.26
2018-08-08T07:17:16.006Z,53.02
2018-08-08T07:18:15.982Z,53.04
2018-08-08T07:19:16.010Z,52.97
2018-08-08T07:20:16.026Z,52.49
2018-08-08T07:21:16.004Z,52.35
2018-08-08T07:22:16.038Z,52.26
2018-08-08T07:23:16.064Z,52.3
2018-08-08T07:24:16.043Z,52.22
2018-08-08T07:25:16.348Z,52.01
2018-08-08T07:26:16.015Z,51.72
2018-08-08T07:27:16.015Z,51.49
2018-08-08T07:28:16.184Z,51.56
2018-08-08T07:29:16.014Z,52.11
2018-08-08T07:30:16.214Z,52.04
2018-08-08T07:31:16.010Z,51.04
2018-08-08T07:32:16.289Z,50.97
2018-08-08T07:33:16.084Z,50.84
2018-08-08T07:34:16.025Z,51.13
2018-08-08T07:35:16.015Z,50.61
2018-08-08T07:36:16.076Z,50.5
2018-08-08T07:37:16.257Z,50.6
2018-08-08T07:38:16.055Z,50.6
2018-08-08T07:39:16.050Z,49.86
2018-08-08T07:40:16.149Z,49.3
2018-08-08T07:41:16.079Z,49.33
2018-08-08T07:42:16.051Z,49.32
2018-08-08T07:43:16.012Z,49.71
2018-08-08T07:44:16.058Z,49.76
2018-08-08T07:45:16.060Z,47.95
2018-08-08T07:46:16.094Z,48.18
2018-08-08T07:47:16.156Z,46.96
2018-08-08T07:48:16.087Z,47.47
2018-08-08T07:49:16.282Z,47.53
2018-08-08T07:50:16.056Z,47.74
2018-08-08T07:51:16.068Z,47.92
2018-08-08T07:52:16.101Z,48.02
2018-08-08T07:53:16.189Z,48.28
2018-08-08T07:54:16.070Z,48.44
2018-08-08T07:55:16.059Z,48.19
2018-08-08T07:56:16.036Z,48.53
2018-08-08T07:57:16.057Z,48.34
2018-08-08T07:58:16.581Z,48.46
2018-08-08T07:59:16.191Z,48.56
2018-08-08T08:00:16.048Z,48.22
2018-08-08T08:01:16.054Z,48.45
2018-08-08T08:02:16.123Z,48.85
2018-08-08T08:03:16.160Z,48.8
2018-08-08T08:04:16.133Z,49.01
2018-08-08T08:05:16.055Z,49.12
2018-08-08T08:06:16.061Z,49.14
2018-08-08T08:07:16.085Z,48.31
2018-08-08T08:08:16.374Z,47.83
2018-08-08T08:09:16.072Z,48.05
2018-08-08T08:10:16.132Z,47.99
2018-08-08T08:11:16.124Z,47.7
2018-08-08T08:12:16.096Z,47.54
2018-08-08T08:13:16.401Z,47.72
2018-08-08T08:14:16.173Z,48.07
2018-08-08T08:15:16.106Z,48.44
2018-08-08T08:16:16.045Z,48.47
2018-08-08T08:17:16.069Z,48.43
2018-08-08T08:18:16.137Z,48.33
2018-08-08T08:19:16.080Z,48.06
2018-08-08T08:20:16.064Z,48.05
2018-08-08T08:21:16.073Z,48.23
2018-08-08T08:22:16.114Z,48.31
2018-08-08T08:23:16.100Z,48.15
2018-08-08T08:24:16.071Z,47.98
2018-08-08T08:25:16.085Z,48.16
2018-08-08T08:26:16.080Z,48.64
2018-08-08T08:27:16.081Z,47.85
2018-08-08T08:28:16.060Z,47.98
2018-08-08T08:29:16.115Z,48.06
2018-08-08T08:30:16.088Z,47.79
2018-08-08T08:31:16.080Z,47.72
2018-08-08T08:32:16.102Z,47.6
2018-08-08T08:33:16.077Z,47.66
2018-08-08T08:34:16.095Z,47.88
2018-08-08T08:35:16.105Z,47.65
2018-08-08T08:36:16.098Z,47.31
2018-08-08T08:37:16.099Z,47.67
2018-08-08T08:38:16.110Z,47.66
2018-08-08T08:39:16.135Z,47.67
2018-08-08T08:40:16.338Z,47.64
2018-08-08T08:41:16.128Z,47.74
2018-08-08T08:42:16.169Z,47.54
2018-08-08T08:43:16.102Z,47.43
2018-08-08T08:44:16.266Z,47.46
2018-08-08T08:45:16.113Z,47.8
2018-08-08T08:46:16.105Z,47.05
2018-08-08T08:47:16.158Z,46.98
2018-08-08T08:48:16.075Z,46.79
2018-08-08T08:49:16.099Z,46.75
2018-08-08T08:50:16.195Z,46.39
2018-08-08T08:51:16.113Z,46.21
2018-08-08T08:52:16.257Z,45.99
2018-08-08T08:53:16.134Z,45.8
2018-08-08T08:54:16.092Z,46.06
2018-08-08T08:55:16.267Z,45.92
2018-08-08T08:56:16.276Z,45.32
2018-08-08T08:57:16.231Z,45.41
2018-08-08T08:58:16.212Z,45.18
2018-08-08T08:59:16.132Z,45.23
2018-08-08T09:00:16.292Z,45.42
2018-08-08T09:01:16.887Z,45.21
2018-08-08T09:02:16.114Z,45.24
2018-08-08T09:03:16.167Z,45.27
2018-08-08T09:04:16.229Z,45.22
2018-08-08T09:05:16.493Z,44.21
2018-08-08T09:06:16.131Z,44.79
2018-08-08T09:07:16.280Z,44.03
2018-08-08T09:08:16.311Z,43.98
2018-08-08T09:09:16.167Z,44.38
2018-08-08T09:10:16.528Z,44.48
2018-08-08T09:11:16.261Z,44.32
2018-08-08T09:12:16.265Z,44.32
2018-08-08T09:13:16.138Z,44.54
2018-08-08T09:14:16.134Z,44.38
2018-08-08T09:15:16.258Z,43.87
2018-08-08T09:16:16.267Z,43.95
2018-08-08T09:17:16.169Z,43.67
2018-08-08T09:18:16.343Z,43.36
2018-08-08T09:19:16.276Z,43.28
2018-08-08T09:20:16.176Z,42.94
2018-08-08T09:21:16.148Z,43.42
2018-08-08T09:22:16.167Z,43.23
2018-08-08T09:23:16.263Z,43.25
2018-08-08T09:24:16.163Z,43.19
2018-08-08T09:25:16.325Z,43.41
2018-08-08T09:26:16.210Z,42.63
2018-08-08T09:27:16.159Z,42.72
2018-08-08T09:28:16.292Z,43.28
2018-08-08T09:29:16.164Z,42.53
2018-08-08T09:30:16.525Z,42.68
2018-08-08T09:31:16.250Z,42.85
2018-08-08T09:32:16.204Z,42.97
2018-08-08T09:33:16.230Z,42.81
2018-08-08T09:34:16.193Z,42.81
2018-08-08T09:35:16.205Z,42.61
2018-08-08T09:36:16.370Z,42.85
2018-08-08T09:37:16.269Z,42.23
2018-08-08T09:38:16.472Z,42.37
2018-08-08T09:39:16.189Z,41.98
2018-08-08T09:40:16.316Z,42.28
2018-08-08T09:41:16.247Z,41.95
2018-08-08T09:42:16.261Z,42.2
2018-08-08T09:43:16.352Z,42.54
2018-08-08T09:44:16.290Z,42.04
2018-08-08T09:45:16.352Z,42.31
2018-08-08T09:46:16.179Z,42.37
2018-08-08T09:47:16.183Z,42.32
2018-08-08T09:48:16.209Z,42.43
2018-08-08T09:49:16.188Z,42.07
2018-08-08T09:50:16.184Z,42.11
2018-08-08T09:51:16.163Z,41.66
2018-08-08T09:52:16.181Z,42.31
2018-08-08T09:53:16.190Z,42.4
2018-08-08T09:54:16.183Z,42.19
2018-08-08T09:55:16.228Z,42.1
2018-08-08T09:56:16.243Z,41.96
2018-08-08T09:57:16.189Z,41.6
2018-08-08T09:58:16.206Z,41.27
2018-08-08T09:59:16.173Z,41.58
2018-08-08T10:00:16.408Z,41.27
2018-08-08T10:01:16.210Z,41.09
2018-08-08T10:02:16.260Z,40.84
2018-08-08T10:03:16.198Z,40.76
2018-08-08T10:04:16.205Z,40.45
2018-08-08T10:05:16.408Z,40.66
2018-08-08T10:06:16.453Z,40.65
2018-08-08T10:07:16.371Z,40.75
2018-08-08T10:08:16.221Z,40.54
2018-08-08T10:09:16.291Z,40.73
2018-08-08T10:10:16.274Z,40.43
2018-08-08T10:11:16.198Z,40.29
2018-08-08T10:12:16.468Z,39.71
2018-08-08T10:13:16.286Z,39.65
2018-08-08T10:14:16.272Z,39.63
2018-08-08T10:15:16.278Z,39.92
2018-08-08T10:16:16.230Z,39.6
2018-08-08T10:17:16.315Z,39.68
2018-08-08T10:18:16.212Z,39.16
2018-08-08T10:19:16.614Z,38.98
2018-08-08T10:20:16.248Z,39.02
2018-08-08T10:21:16.224Z,38.86
2018-08-08T10:22:16.228Z,38.72
2018-08-08T10:23:16.311Z,38.59
2018-08-08T10:24:16.232Z,38.61
2018-08-08T10:25:16.379Z,38.66
2018-08-08T10:26:16.256Z,39.03
2018-08-08T10:27:16.213Z,39.82
2018-08-08T10:28:16.234Z,39.87
2018-08-08T10:29:16.244Z,39.77
2018-08-08T10:30:16.499Z,39.58
2018-08-08T10:31:16.337Z,39.52
2018-08-08T10:32:16.306Z,39.53
2018-08-08T10:33:16.274Z,38.84
2018-08-08T10:34:16.266Z,38.56
2018-08-08T10:35:16.247Z,38.44
2018-08-08T10:36:16.274Z,38.29
2018-08-08T10:37:16.428Z,38.68
2018-08-08T10:38:16.257Z,38.54
2018-08-08T10:39:16.244Z,38.13
2018-08-08T10:40:16.292Z,38.05
2018-08-08T10:41:16.547Z,38.54
2018-08-08T10:42:16.274Z,38.82
2018-08-08T10:43:16.325Z,38.97
2018-08-08T10:44:16.269Z,39.3
2018-08-08T10:45:16.377Z,39.15
2018-08-08T10:46:16.272Z,38.99
2018-08-08T10:47:16.539Z,38.74
2018-08-08T10:48:16.246Z,39.1
2018-08-08T10:49:16.261Z,39.02
2018-08-08T10:50:16.509Z,39.08
2018-08-08T10:51:16.257Z,38.96
2018-08-08T10:52:16.343Z,39.15
2018-08-08T10:53:16.275Z,39.26
2018-08-08T10:54:16.301Z,39.36
2018-08-08T10:55:16.417Z,38.7
2018-08-08T10:56:16.378Z,38.67
2018-08-08T10:57:16.434Z,38.45
2018-08-08T10:58:16.274Z,38.97
2018-08-08T10:59:16.289Z,38.9
2018-08-08T11:00:16.319Z,38.52
2018-08-08T11:01:16.295Z,39.04
2018-08-08T11:02:16.265Z,38.93
2018-08-08T11:03:16.361Z,39.12
2018-08-08T11:04:16.281Z,39.38
2018-08-08T11:05:16.288Z,39.63
2018-08-08T11:06:16.301Z,39.34
2018-08-08T11:07:16.281Z,39.81
2018-08-08T11:08:16.262Z,39.87
2018-08-08T11:09:16.281Z,40.03
2018-08-08T11:10:16.426Z,40.06
2018-08-08T11:11:16.289Z,39.85
2018-08-08T11:12:16.293Z,40.18
2018-08-08T11:13:16.283Z,40.2
2018-08-08T11:14:16.283Z,40.43
2018-08-08T11:15:16.375Z,40.31
2018-08-08T11:16:16.281Z,40.38
2018-08-08T11:17:16.301Z,40.28
2018-08-08T11:18:16.375Z,40.16
2018-08-08T11:19:16.346Z,40.34
2018-08-08T11:20:16.457Z,40.47
2018-08-08T11:21:16.353Z,40.32
2018-08-08T11:22:16.288Z,40.55
2018-08-08T11:23:16.373Z,40.16
2018-08-08T11:24:16.316Z,40.1
2018-08-08T11:25:16.310Z,39.92
2018-08-08T11:26:16.314Z,39.66
2018-08-08T11:27:16.719Z,39.4
2018-08-08T11:28:16.305Z,39.77
2018-08-08T11:29:16.439Z,39.71
2018-08-08T11:30:16.326Z,39.43
2018-08-08T11:31:16.364Z,39.82
2018-08-08T11:32:16.425Z,39.89
2018-08-08T11:33:16.940Z,39.87
2018-08-08T11:34:16.414Z,39.07
2018-08-08T11:35:16.370Z,39.54
2018-08-08T11:36:16.482Z,39.48
2018-08-08T11:37:16.506Z,39.49
2018-08-08T11:38:16.368Z,39.43
2018-08-08T11:39:16.587Z,39.26
2018-08-08T11:40:16.402Z,39.13
2018-08-08T11:41:16.350Z,39.27
2018-08-08T11:42:16.439Z,38.99
2018-08-08T11:43:16.345Z,37.7
2018-08-08T11:44:16.351Z,38.33
2018-08-08T11:45:16.322Z,37.94
2018-08-08T11:46:16.461Z,37.75
2018-08-08T11:47:16.406Z,37.85
2018-08-08T11:48:16.333Z,37.98
2018-08-08T11:49:16.347Z,37.71
2018-08-08T11:50:16.544Z,37.88
2018-08-08T11:51:16.525Z,37.99
2018-08-08T11:52:16.458Z,37.76
2018-08-08T11:53:16.467Z,37.48
2018-08-08T11:54:16.448Z,37.58
2018-08-08T11:55:16.364Z,37.64
2018-08-08T11:56:16.376Z,37.7
2018-08-08T11:57:16.355Z,37.7
2018-08-08T11:58:16.468Z,37.65
2018-08-08T11:59:16.555Z,37.86
2018-08-08T12:00:16.374Z,37.43
2018-08-08T12:01:16.493Z,37.27
2018-08-08T12:02:16.706Z,37.2
2018-08-08T12:03:16.527Z,36.87
2018-08-08T12:04:16.442Z,36.96
2018-08-08T12:05:16.397Z,37.04
2018-08-08T12:06:16.430Z,37.08
2018-08-08T12:07:16.635Z,36.95
2018-08-08T12:08:16.427Z,37.29
2018-08-08T12:09:16.541Z,37.32
2018-08-08T12:10:16.379Z,37.05
2018-08-08T12:11:16.374Z,36.9
2018-08-08T12:12:16.479Z,36.71
2018-08-08T12:13:16.676Z,36.88
2018-08-08T12:14:16.746Z,36.91
2018-08-08T12:15:16.460Z,36.91
2018-08-08T12:16:16.379Z,36.8
2018-08-08T12:17:16.384Z,37.01
2018-08-08T12:18:16.398Z,37.11
2018-08-08T12:19:16.372Z,37.17
2018-08-08T12:20:16.641Z,37.14
2018-08-08T12:21:16.362Z,37.03
2018-08-08T12:22:16.375Z,36.82
2018-08-08T12:23:16.679Z,36.75
2018-08-08T12:24:16.378Z,36.88
2018-08-08T12:25:16.388Z,37
2018-08-08T12:26:16.405Z,36.87
2018-08-08T12:27:16.410Z,36.96
2018-08-08T12:28:16.398Z,36.82
2018-08-08T12:29:16.400Z,36.79
2018-08-08T12:30:16.393Z,36.8
2018-08-08T12:31:16.405Z,36.99
2018-08-08T12:32:16.430Z,36.91
2018-08-08T12:33:16.405Z,36.86
2018-08-08T12:34:16.451Z,36.95
2018-08-08T12:35:16.474Z,36.8
2018-08-08T12:36:16.405Z,36.63
2018-08-08T12:37:17.098Z,36.85
2018-08-08T12:38:16.385Z,36.66
2018-08-08T12:39:16.614Z,36.49
2018-08-08T12:40:16.866Z,36.58
2018-08-08T12:41:16.407Z,36.29
2018-08-08T12:42:16.575Z,36.53
2018-08-08T12:43:16.407Z,36.41
2018-08-08T12:44:16.429Z,36.55
2018-08-08T12:45:16.516Z,36.63
2018-08-08T12:46:16.521Z,36.74
2018-08-08T12:47:16.654Z,36.74
2018-08-08T12:48:16.458Z,36.76
2018-08-08T12:49:16.425Z,36.67
2018-08-08T12:50:16.781Z,36.84
2018-08-08T12:51:16.467Z,36.72
2018-08-08T12:52:16.690Z,36.67
2018-08-08T12:53:16.459Z,37.24
2018-08-08T12:54:16.542Z,37.15
2018-08-08T12:55:16.447Z,37.22